createdAt,value
2018-08-06T00:00:48.021Z,12.85
2018-08-06T00:01:47.999Z,12.85
2018-08-06T00:02:47.977Z,12.86
2018-08-06T00:03:47.953Z,12.90
2018-08-06T00:04:47.931Z,12.87
2018-08-06T00:05:47.909Z,12.90
2018-08-06T00:06:47.887Z,12.92
2018-08-06T00:07:47.865Z,12.90
2018-08-06T00:08:47.844Z,12.89
2018-08-06T00:09:47.818Z,12.87
2018-08-06T00:10:47.797Z,12.86
2018-08-06T00:11:47.776Z,12.93
2018-08-06T00:12:47.755Z,12.86
2018-08-06T00:13:47.731Z,12.82
2018-08-06T00:14:47.708Z,12.82
2018-08-06T00:15:47.686Z,12.86
2018-08-06T00:16:47.664Z,12.79
2018-08-06T00:17:47.642Z,12.87
2018-08-06T00:18:47.622Z,12.87
2018-08-06T00:19:47.597Z,12.87
2018-08-06T00:20:47.574Z,12.90
2018-08-06T00:21:47.551Z,12.85
2018-08-06T00:22:47.529Z,12.87
2018-08-06T00:23:47.509Z,12.92
2018-08-06T00:24:47.485Z,13.01
2018-08-06T00:25:47.464Z,13.03
2018-08-06T00:26:47.443Z,13.03
2018-08-06T00:27:47.417Z,13.08
2018-08-06T00:28:47.396Z,13.08
2018-08-06T00:29:47.372Z,13.12
2018-08-06T00:30:47.350Z,13.12
2018-08-06T00:31:47.327Z,13.08
2018-08-06T00:32:47.306Z,13.03
2018-08-06T00:33:47.281Z,13.03
2018-08-06T00:34:47.260Z,12.90
2018-08-06T00:35:47.240Z,12.92
2018-08-06T00:36:47.215Z,12.89
2018-08-06T00:37:47.190Z,12.87
2018-08-06T00:38:47.169Z,12.89
2018-08-06T00:39:47.147Z,12.83
2018-08-06T00:40:47.126Z,12.86
2018-08-06T00:41:47.101Z,12.85
2018-08-06T00:42:47.078Z,12.85
2018-08-06T00:43:47.060Z,12.82
2018-08-06T00:44:47.035Z,12.83
2018-08-06T00:45:47.010Z,12.83
2018-08-06T00:46:46.988Z,12.72
2018-08-06T00:47:46.966Z,12.68
2018-08-06T00:48:46.944Z,12.65
2018-08-06T00:49:46.921Z,12.54
2018-08-06T00:50:46.898Z,12.56
2018-08-06T00:51:46.877Z,12.47
2018-08-06T00:52:46.854Z,12.41
2018-08-06T00:53:46.829Z,12.47
2018-08-06T00:54:46.808Z,12.42
2018-08-06T00:55:46.785Z,12.27
2018-08-06T00:56:46.763Z,12.32
2018-08-06T00:57:46.740Z,12.34
2018-08-06T00:58:46.718Z,12.29
2018-08-06T00:59:46.694Z,12.31
2018-08-06T01:00:46.671Z,12.31
2018-08-06T01:01:46.650Z,12.23
2018-08-06T01:02:46.629Z,12.20
2018-08-06T01:03:46.604Z,12.23
2018-08-06T01:04:46.582Z,12.31
2018-08-06T01:05:46.562Z,12.17
2018-08-06T01:06:46.536Z,12.14
2018-08-06T01:07:46.512Z,12.17
2018-08-06T01:08:46.490Z,12.20
2018-08-06T01:09:46.467Z,12.12
2018-08-06T01:10:46.444Z,12.13
2018-08-06T01:11:46.423Z,12.09
2018-08-06T01:12:46.401Z,12.07
2018-08-06T01:13:46.376Z,12.02
2018-08-06T01:14:46.353Z,11.96
2018-08-06T01:15:46.330Z,12.04
2018-08-06T01:16:46.311Z,12.05
2018-08-06T01:17:46.283Z,11.96
2018-08-06T01:18:46.262Z,12.02
2018-08-06T01:19:46.239Z,12.09
2018-08-06T01:20:46.217Z,11.96
2018-08-06T01:21:46.193Z,11.90
2018-08-06T01:22:46.174Z,11.88
2018-08-06T01:23:46.146Z,11.96
2018-08-06T01:24:46.131Z,11.96
2018-08-06T01:25:46.103Z,12.05
2018-08-06T01:26:46.079Z,11.99
2018-08-06T01:27:46.056Z,12.04
2018-08-06T01:28:46.034Z,11.94
2018-08-06T01:29:46.011Z,11.98
2018-08-06T01:30:45.988Z,11.99
2018-08-06T01:31:45.965Z,11.94
2018-08-06T01:32:45.945Z,11.91
2018-08-06T01:33:45.919Z,11.86
2018-08-06T01:34:45.896Z,11.91
2018-08-06T01:35:45.874Z,11.91
2018-08-06T01:36:45.851Z,11.96
2018-08-06T01:37:45.827Z,11.90
2018-08-06T01:38:45.805Z,11.85
2018-08-06T01:39:45.782Z,11.80
2018-08-06T01:40:45.758Z,11.85
2018-08-06T01:41:45.737Z,11.83
2018-08-06T01:42:45.711Z,11.82
2018-08-06T01:43:45.689Z,11.80
2018-08-06T01:44:45.667Z,11.80
2018-08-06T01:45:45.650Z,11.83
2018-08-06T01:46:45.621Z,11.76
2018-08-06T01:47:45.601Z,11.80
2018-08-06T01:48:45.575Z,11.88
2018-08-06T01:49:45.550Z,11.76
2018-08-06T01:50:45.526Z,11.72
2018-08-06T01:51:45.504Z,11.70
2018-08-06T01:52:45.483Z,11.80
2018-08-06T01:53:45.457Z,11.78
2018-08-06T01:54:45.434Z,11.72
2018-08-06T01:55:45.414Z,11.72
2018-08-06T01:56:45.389Z,11.61
2018-08-06T01:57:45.366Z,11.60
2018-08-06T01:58:45.343Z,11.58
2018-08-06T01:59:45.324Z,11.58
2018-08-06T02:00:45.298Z,11.65
2018-08-06T02:01:45.273Z,11.55
2018-08-06T02:02:45.250Z,11.58
2018-08-06T02:03:45.227Z,11.62
2018-08-06T02:04:45.205Z,11.61
2018-08-06T02:05:45.182Z,11.61
2018-08-06T02:06:45.159Z,11.60
2018-08-06T02:07:45.137Z,11.54
2018-08-06T02:08:45.113Z,11.62
2018-08-06T02:09:45.090Z,11.52
2018-08-06T02:10:45.067Z,11.58
2018-08-06T02:11:45.043Z,11.47
2018-08-06T02:12:45.024Z,11.49
2018-08-06T02:13:44.995Z,11.44
2018-08-06T02:14:44.974Z,11.52
2018-08-06T02:15:44.950Z,11.51
2018-08-06T02:16:44.926Z,11.39
2018-08-06T02:17:44.903Z,11.44
2018-08-06T02:18:44.881Z,11.37
2018-08-06T02:19:44.856Z,11.37
2018-08-06T02:20:44.834Z,11.47
2018-08-06T02:21:44.810Z,11.40
2018-08-06T02:22:44.787Z,11.40
2018-08-06T02:23:44.764Z,11.39
2018-08-06T02:24:44.742Z,11.39
2018-08-06T02:25:44.716Z,11.37
2018-08-06T02:26:44.698Z,11.36
2018-08-06T02:27:44.671Z,11.32
2018-08-06T02:28:44.649Z,11.29
2018-08-06T02:29:44.625Z,11.28
2018-08-06T02:30:44.601Z,11.32
2018-08-06T02:31:44.578Z,11.18
2018-08-06T02:32:44.561Z,11.17
2018-08-06T02:33:44.532Z,11.10
2018-08-06T02:34:44.509Z,11.14
2018-08-06T02:35:44.484Z,11.07
2018-08-06T02:36:44.467Z,10.99
2018-08-06T02:37:44.440Z,11.02
2018-08-06T02:38:44.415Z,11.02
2018-08-06T02:39:44.392Z,10.97
2018-08-06T02:40:44.370Z,10.96
2018-08-06T02:41:44.347Z,10.97
2018-08-06T02:42:44.322Z,10.96
2018-08-06T02:43:44.299Z,10.96
2018-08-06T02:44:44.276Z,10.99
2018-08-06T02:45:44.252Z,10.91
2018-08-06T02:46:44.231Z,10.89
2018-08-06T02:47:44.206Z,10.86
2018-08-06T02:48:44.183Z,10.82
2018-08-06T02:49:44.159Z,10.86
2018-08-06T02:50:44.136Z,10.82
2018-08-06T02:51:44.113Z,10.88
2018-08-06T02:52:44.093Z,10.92
2018-08-06T02:53:44.068Z,10.97
2018-08-06T02:54:44.043Z,11.00
2018-08-06T02:55:44.019Z,11.00
2018-08-06T02:56:43.996Z,11.03
2018-08-06T02:57:43.974Z,11.04
2018-08-06T02:58:43.950Z,10.94
2018-08-06T02:59:43.925Z,10.97
2018-08-06T03:00:43.902Z,10.86
2018-08-06T03:01:43.881Z,10.84
2018-08-06T03:02:43.855Z,10.91
2018-08-06T03:03:43.834Z,10.81
2018-08-06T03:04:43.809Z,10.85
2018-08-06T03:05:43.784Z,10.85
2018-08-06T03:06:43.761Z,10.88
2018-08-06T03:07:43.743Z,10.86
2018-08-06T03:08:43.715Z,10.89
2018-08-06T03:09:43.691Z,10.84
2018-08-06T03:10:43.669Z,10.85
2018-08-06T03:11:43.645Z,10.91
2018-08-06T03:12:43.621Z,10.91
2018-08-06T03:13:43.597Z,10.92
2018-08-06T03:14:43.574Z,10.84
2018-08-06T03:15:43.551Z,10.88
2018-08-06T03:16:43.528Z,10.85
2018-08-06T03:17:43.503Z,10.88
2018-08-06T03:18:43.486Z,10.88
2018-08-06T03:19:43.456Z,10.85
2018-08-06T03:20:43.434Z,10.85
2018-08-06T03:21:43.410Z,10.81
2018-08-06T03:22:43.389Z,10.92
2018-08-06T03:23:43.364Z,10.94
2018-08-06T03:24:43.340Z,10.89
2018-08-06T03:25:43.316Z,10.89
2018-08-06T03:26:43.292Z,10.92
2018-08-06T03:27:43.270Z,10.86
2018-08-06T03:28:43.247Z,10.78
2018-08-06T03:29:43.316Z,10.74
2018-08-06T03:30:43.199Z,10.71
2018-08-06T03:31:43.177Z,10.81
2018-08-06T03:32:43.151Z,10.73
2018-08-06T03:33:43.128Z,10.78
2018-08-06T03:34:43.104Z,10.71
2018-08-06T03:35:43.078Z,10.66
2018-08-06T03:36:43.056Z,10.73
2018-08-06T03:37:43.032Z,10.66
2018-08-06T03:38:43.010Z,10.63
2018-08-06T03:39:42.985Z,10.78
2018-08-06T03:40:42.962Z,10.74
2018-08-06T03:41:42.940Z,10.61
2018-08-06T03:42:42.915Z,10.73
2018-08-06T03:43:42.892Z,10.64
2018-08-06T03:44:42.868Z,10.78
2018-08-06T03:45:42.844Z,10.74
2018-08-06T03:46:42.820Z,10.70
2018-08-06T03:47:42.797Z,10.73
2018-08-06T03:48:42.773Z,10.71
2018-08-06T03:49:42.751Z,10.76
2018-08-06T03:50:42.727Z,10.73
2018-08-06T03:51:42.703Z,10.68
2018-08-06T03:52:42.746Z,10.67
2018-08-06T03:53:42.654Z,10.71
2018-08-06T03:54:42.633Z,10.74
2018-08-06T03:55:42.608Z,10.74
2018-08-06T03:56:42.588Z,10.78
2018-08-06T03:57:42.561Z,10.78
2018-08-06T03:58:42.536Z,10.71
2018-08-06T03:59:42.513Z,10.67
2018-08-06T04:00:42.491Z,10.67
2018-08-06T04:01:42.466Z,10.70
2018-08-06T04:02:42.443Z,10.67
2018-08-06T04:03:42.419Z,10.70
2018-08-06T04:04:42.396Z,10.79
2018-08-06T04:05:42.371Z,10.74
2018-08-06T04:06:42.348Z,10.88
2018-08-06T04:07:42.323Z,10.84
2018-08-06T04:08:42.304Z,10.99
2018-08-06T04:09:42.278Z,11.00
2018-08-06T04:10:42.252Z,11.00
2018-08-06T04:11:42.229Z,11.00
2018-08-06T04:12:42.206Z,11.02
2018-08-06T04:13:42.184Z,11.00
2018-08-06T04:14:42.160Z,10.96
2018-08-06T04:15:42.142Z,11.04
2018-08-06T04:16:42.113Z,11.03
2018-08-06T04:17:42.089Z,11.07
2018-08-06T04:18:42.064Z,11.00
2018-08-06T04:19:42.071Z,11.04
2018-08-06T04:20:42.020Z,10.96
2018-08-06T04:21:41.993Z,11.00
2018-08-06T04:22:41.971Z,11.02
2018-08-06T04:23:41.948Z,11.02
2018-08-06T04:24:41.924Z,11.02
2018-08-06T04:25:41.900Z,10.96
2018-08-06T04:26:41.876Z,11.09
2018-08-06T04:27:41.853Z,11.11
2018-08-06T04:28:41.843Z,11.10
2018-08-06T04:29:41.809Z,11.19
2018-08-06T04:30:41.784Z,11.10
2018-08-06T04:32:14.969Z,11.25
2018-08-06T04:32:41.757Z,11.22
2018-08-06T04:33:41.712Z,11.28
2018-08-06T04:34:41.689Z,11.24
2018-08-06T04:35:41.665Z,11.37
2018-08-06T04:36:41.644Z,11.40
2018-08-06T04:37:41.619Z,11.55
2018-08-06T04:38:41.595Z,11.60
2018-08-06T04:39:41.573Z,11.73
2018-08-06T04:40:41.550Z,11.70
2018-08-06T04:41:41.526Z,11.69
2018-08-06T04:42:41.503Z,11.72
2018-08-06T04:43:41.478Z,11.70
2018-08-06T04:44:41.455Z,11.75
2018-08-06T04:45:41.431Z,11.70
2018-08-06T04:46:41.410Z,11.82
2018-08-06T04:47:41.386Z,11.78
2018-08-06T04:48:41.364Z,11.85
2018-08-06T04:49:41.340Z,11.86
2018-08-06T04:50:41.315Z,11.79
2018-08-06T04:51:41.293Z,11.88
2018-08-06T04:52:41.269Z,11.98
2018-08-06T04:53:41.246Z,11.98
2018-08-06T04:54:41.227Z,12.02
2018-08-06T04:55:41.201Z,12.14
2018-08-06T04:56:41.178Z,12.16
2018-08-06T04:57:41.154Z,12.17
2018-08-06T04:58:41.132Z,12.28
2018-08-06T04:59:41.155Z,12.34
2018-08-06T05:00:41.085Z,12.29
2018-08-06T05:01:41.065Z,12.41
2018-08-06T05:02:41.039Z,12.46
2018-08-06T05:03:41.017Z,12.59
2018-08-06T05:04:40.993Z,12.52
2018-08-06T05:05:40.972Z,12.60
2018-08-06T05:06:40.948Z,12.70
2018-08-06T05:07:40.925Z,12.72
2018-08-06T05:08:40.908Z,12.77
2018-08-06T05:09:40.878Z,12.86
2018-08-06T05:10:40.857Z,12.87
2018-08-06T05:11:40.834Z,12.89
2018-08-06T05:12:40.811Z,13.04
2018-08-06T05:13:40.888Z,13.07
2018-08-06T05:14:40.765Z,13.14
2018-08-06T05:15:40.743Z,13.19
2018-08-06T05:16:40.725Z,13.29
2018-08-06T05:17:40.696Z,13.38
2018-08-06T05:18:40.675Z,13.48
2018-08-06T05:19:40.653Z,13.52
2018-08-06T05:20:40.633Z,13.55
2018-08-06T05:21:40.608Z,13.66
2018-08-06T05:22:40.586Z,13.78
2018-08-06T05:23:40.561Z,13.81
2018-08-06T05:24:40.572Z,13.99
2018-08-06T05:25:40.517Z,14.06
2018-08-06T05:26:40.498Z,14.07
2018-08-06T05:27:40.473Z,14.36
2018-08-06T05:28:40.451Z,14.51
2018-08-06T05:29:40.429Z,14.68
2018-08-06T05:30:40.405Z,14.84
2018-08-06T05:31:40.385Z,15.21
2018-08-06T05:32:40.364Z,15.60
2018-08-06T05:33:40.340Z,16.07
2018-08-06T05:34:40.318Z,17.21
2018-08-06T05:35:40.296Z,18.58
2018-08-06T05:36:40.275Z,19.63
2018-08-06T05:37:40.254Z,20.61
2018-08-06T05:38:40.234Z,21.54
2018-08-06T05:39:40.213Z,22.14
2018-08-06T05:40:40.193Z,22.72
2018-08-06T05:41:40.172Z,23.12
2018-08-06T05:42:40.160Z,23.46
2018-08-06T05:43:40.136Z,23.79
2018-08-06T05:44:40.115Z,24.22
2018-08-06T05:45:40.100Z,24.55
2018-08-06T05:46:40.081Z,24.78
2018-08-06T05:47:40.061Z,25.03
2018-08-06T05:48:40.044Z,25.13
2018-08-06T05:49:40.026Z,25.10
2018-08-06T05:50:40.010Z,25.17
2018-08-06T05:51:39.993Z,24.93
2018-08-06T05:52:39.978Z,24.96
2018-08-06T05:53:39.962Z,24.83
2018-08-06T05:54:39.945Z,25.02
2018-08-06T05:55:39.930Z,25.45
2018-08-06T05:56:39.919Z,25.55
2018-08-06T05:57:39.901Z,25.76
2018-08-06T05:58:39.885Z,25.98
2018-08-06T05:59:39.871Z,26.13
2018-08-06T06:00:39.856Z,26.39
2018-08-06T06:01:39.846Z,26.63
2018-08-06T06:02:39.827Z,26.73
2018-08-06T06:03:39.814Z,26.87
2018-08-06T06:04:39.801Z,27.07
2018-08-06T06:05:39.788Z,27.18
2018-08-06T06:06:39.772Z,27.46
2018-08-06T06:07:39.760Z,27.67
2018-08-06T06:08:39.746Z,27.81
2018-08-06T06:09:39.735Z,27.90
2018-08-06T06:10:39.721Z,27.69
2018-08-06T06:11:39.707Z,28.14
2018-08-06T06:12:39.696Z,28.48
2018-08-06T06:13:39.681Z,28.70
2018-08-06T06:14:39.669Z,28.27
2018-08-06T06:15:39.657Z,28.33
2018-08-06T06:16:39.645Z,28.25
2018-08-06T06:17:39.637Z,28.54
2018-08-06T06:18:39.622Z,28.66
2018-08-06T06:19:39.609Z,28.77
2018-08-06T06:20:39.598Z,28.74
2018-08-06T06:21:39.584Z,29.02
2018-08-06T06:22:39.575Z,28.92
2018-08-06T06:23:39.561Z,28.54
2018-08-06T06:24:39.552Z,28.68
2018-08-06T06:25:39.573Z,28.70
2018-08-06T06:26:39.526Z,28.74
2018-08-06T06:27:39.516Z,28.78
2018-08-06T06:28:39.547Z,28.77
2018-08-06T06:29:39.498Z,29.04
2018-08-06T06:30:39.481Z,29.26
2018-08-06T06:31:39.471Z,29.57
2018-08-06T06:32:39.458Z,29.71
2018-08-06T06:33:39.447Z,29.78
2018-08-06T06:34:39.513Z,29.89
2018-08-06T06:35:39.427Z,29.78
2018-08-06T06:36:39.416Z,29.58
2018-08-06T06:37:39.403Z,29.55
2018-08-06T06:38:39.393Z,29.64
2018-08-06T06:39:39.383Z,29.80
2018-08-06T06:40:39.375Z,30.15
2018-08-06T06:41:39.414Z,30.31
2018-08-06T06:42:39.351Z,29.71
2018-08-06T06:43:39.342Z,29.46
2018-08-06T06:44:39.331Z,29.09
2018-08-06T06:45:39.319Z,28.88
2018-08-06T06:46:39.310Z,29.19
2018-08-06T06:47:39.299Z,29.30
2018-08-06T06:48:39.290Z,29.73
2018-08-06T06:49:39.277Z,29.98
2018-08-06T06:50:39.268Z,29.18
2018-08-06T06:51:39.258Z,29.83
2018-08-06T06:52:39.247Z,30.11
2018-08-06T06:53:39.236Z,29.89
2018-08-06T06:54:39.231Z,29.64
2018-08-06T06:55:39.219Z,30.10
2018-08-06T06:56:39.208Z,30.58
2018-08-06T06:57:39.195Z,30.70
2018-08-06T06:58:39.187Z,30.11
2018-08-06T06:59:39.178Z,28.88
2018-08-06T07:00:39.171Z,29.21
2018-08-06T07:01:39.159Z,29.52
2018-08-06T07:02:39.156Z,30.32
2018-08-06T07:03:39.137Z,30.88
2018-08-06T07:04:39.127Z,30.91
2018-08-06T07:05:39.117Z,30.83
2018-08-06T07:06:39.108Z,30.70
2018-08-06T07:07:39.098Z,30.15
2018-08-06T07:08:39.087Z,29.97
2018-08-06T07:09:39.078Z,30.15
2018-08-06T07:10:39.068Z,29.02
2018-08-06T07:11:39.059Z,29.08
2018-08-06T07:12:39.048Z,29.41
2018-08-06T07:13:39.049Z,29.65
2018-08-06T07:14:39.067Z,30.20
2018-08-06T07:15:39.019Z,30.26
2018-08-06T07:16:39.009Z,30.34
2018-08-06T07:17:39.000Z,30.39
2018-08-06T07:18:38.987Z,29.70
2018-08-06T07:19:38.980Z,29.33
2018-08-06T07:20:38.969Z,28.98
2018-08-06T07:21:38.959Z,28.98
2018-08-06T07:22:38.947Z,29.31
2018-08-06T07:23:38.938Z,29.55
2018-08-06T07:24:38.933Z,29.55
2018-08-06T07:25:38.917Z,29.18
2018-08-06T07:26:38.907Z,28.95
2018-08-06T07:27:38.898Z,28.96
2018-08-06T07:28:38.887Z,28.81
2018-08-06T07:29:38.876Z,27.96
2018-08-06T07:30:38.865Z,28.00
2018-08-06T07:31:38.855Z,27.90
2018-08-06T07:32:38.845Z,28.22
2018-08-06T07:33:38.859Z,28.36
2018-08-06T07:34:38.824Z,29.08
2018-08-06T07:35:38.813Z,29.61
2018-08-06T07:36:38.804Z,29.48
2018-08-06T07:37:38.794Z,29.78
2018-08-06T07:38:38.781Z,29.94
2018-08-06T07:39:38.770Z,30.15
2018-08-06T07:40:38.759Z,29.90
2018-08-06T07:41:38.747Z,30.05
2018-08-06T07:42:38.738Z,30.22
2018-08-06T07:43:38.727Z,29.73
2018-08-06T07:44:38.718Z,29.71
2018-08-06T07:45:38.706Z,30.51
2018-08-06T07:46:38.695Z,30.76
2018-08-06T07:47:38.687Z,31.09
2018-08-06T07:48:38.676Z,31.34
2018-08-06T07:49:38.716Z,31.43
2018-08-06T07:50:38.655Z,31.54
2018-08-06T07:51:38.647Z,31.28
2018-08-06T07:52:38.636Z,30.70
2018-08-06T07:53:38.625Z,30.79
2018-08-06T07:54:38.616Z,30.54
2018-08-06T07:55:38.607Z,30.64
2018-08-06T07:56:38.596Z,30.69
2018-08-06T07:57:38.586Z,30.64
2018-08-06T07:58:38.579Z,30.53
2018-08-06T07:59:38.584Z,30.97
2018-08-06T08:00:38.556Z,31.10
2018-08-06T08:01:38.546Z,31.39
2018-08-06T08:02:38.537Z,31.65
2018-08-06T08:03:38.526Z,31.63
2018-08-06T08:04:38.518Z,31.62
2018-08-06T08:05:38.507Z,31.62
2018-08-06T08:06:38.498Z,31.76
2018-08-06T08:07:38.489Z,31.88
2018-08-06T08:08:38.478Z,32.03
2018-08-06T08:09:38.469Z,31.25
2018-08-06T08:10:38.461Z,31.35
2018-08-06T08:11:38.450Z,31.32
2018-08-06T08:12:38.440Z,31.21
2018-08-06T08:13:38.430Z,31.26
2018-08-06T08:14:38.423Z,31.36
2018-08-06T08:15:38.413Z,31.73
2018-08-06T08:16:38.402Z,32.18
2018-08-06T08:17:38.394Z,32.19
2018-08-06T08:18:38.384Z,31.13
2018-08-06T08:19:38.494Z,30.53
2018-08-06T08:20:38.366Z,29.65
2018-08-06T08:21:38.356Z,29.06
2018-08-06T08:22:38.345Z,28.98
2018-08-06T08:23:38.336Z,29.57
2018-08-06T08:24:38.328Z,30.31
2018-08-06T08:25:38.316Z,30.60
2018-08-06T08:26:38.307Z,30.61
2018-08-06T08:27:38.298Z,30.22
2018-08-06T08:28:38.287Z,29.73
2018-08-06T08:29:38.277Z,29.86
2018-08-06T08:30:38.266Z,29.94
2018-08-06T08:31:38.257Z,30.13
2018-08-06T08:32:38.248Z,30.60
2018-08-06T08:33:38.237Z,30.80
2018-08-06T08:34:38.227Z,30.08
2018-08-06T08:35:38.217Z,30.34
2018-08-06T08:36:38.207Z,30.00
2018-08-06T08:37:38.200Z,29.65
2018-08-06T08:38:38.188Z,30.13
2018-08-06T08:39:38.216Z,29.94
2018-08-06T08:40:38.166Z,29.97
2018-08-06T08:41:38.157Z,30.53
2018-08-06T08:42:38.149Z,30.98
2018-08-06T08:43:38.138Z,30.49
2018-08-06T08:44:38.127Z,30.60
2018-08-06T08:45:38.284Z,31.26
2018-08-06T08:46:38.108Z,30.92
2018-08-06T08:47:38.107Z,30.77
2018-08-06T08:48:38.091Z,30.27
2018-08-06T08:49:38.082Z,30.69
2018-08-06T08:50:38.072Z,30.80
2018-08-06T08:51:38.063Z,30.65
2018-08-06T08:52:38.055Z,31.10
2018-08-06T08:53:38.043Z,30.89
2018-08-06T08:54:38.035Z,31.17
2018-08-06T08:55:38.025Z,30.69
2018-08-06T08:56:38.017Z,30.37
2018-08-06T08:57:38.009Z,30.27
2018-08-06T08:58:38.009Z,30.46
2018-08-06T08:59:37.991Z,30.69
2018-08-06T09:00:37.977Z,31.01
2018-08-06T09:01:37.970Z,31.32
2018-08-06T09:02:37.958Z,31.61
2018-08-06T09:03:37.950Z,31.48
2018-08-06T09:04:37.960Z,30.98
2018-08-06T09:05:37.930Z,30.98
2018-08-06T09:06:37.920Z,30.51
2018-08-06T09:07:37.910Z,30.34
2018-08-06T09:08:37.900Z,30.84
2018-08-06T09:09:37.890Z,31.12
2018-08-06T09:10:37.881Z,30.99
2018-08-06T09:11:37.872Z,31.54
2018-08-06T09:12:37.861Z,32.00
2018-08-06T09:13:37.853Z,32.21
2018-08-06T09:14:37.842Z,32.00
2018-08-06T09:15:37.831Z,31.76
2018-08-06T09:16:37.821Z,31.57
2018-08-06T09:17:37.812Z,31.78
2018-08-06T09:18:37.803Z,31.61
2018-08-06T09:19:37.793Z,31.84
2018-08-06T09:20:37.784Z,31.99
2018-08-06T09:21:37.773Z,32.06
2018-08-06T09:22:37.774Z,31.96
2018-08-06T09:23:37.754Z,31.56
2018-08-06T09:24:37.746Z,31.57
2018-08-06T09:25:37.752Z,31.26
2018-08-06T09:26:37.768Z,32.03
2018-08-06T09:27:37.717Z,31.19
2018-08-06T09:28:37.707Z,30.29
2018-08-06T09:29:37.697Z,30.27
2018-08-06T09:30:37.687Z,30.79
2018-08-06T09:31:37.683Z,31.12
2018-08-06T09:32:37.669Z,30.97
2018-08-06T09:33:37.659Z,31.25
2018-08-06T09:34:37.651Z,31.19
2018-08-06T09:35:37.641Z,30.46
2018-08-06T09:36:37.632Z,31.14
2018-08-06T09:37:37.622Z,31.69
2018-08-06T09:38:37.613Z,32.30
2018-08-06T09:39:37.605Z,32.45
2018-08-06T09:40:37.682Z,32.33
2018-08-06T09:41:37.587Z,32.48
2018-08-06T09:42:37.577Z,32.41
2018-08-06T09:43:37.570Z,32.23
2018-08-06T09:44:37.561Z,31.35
2018-08-06T09:45:37.550Z,31.23
2018-08-06T09:46:37.550Z,31.35
2018-08-06T09:47:37.534Z,31.35
2018-08-06T09:48:37.527Z,31.66
2018-08-06T09:49:37.517Z,31.41
2018-08-06T09:50:37.507Z,31.81
2018-08-06T09:51:37.500Z,32.18
2018-08-06T09:52:37.492Z,32.13
2018-08-06T09:53:37.482Z,32.11
2018-08-06T09:54:37.473Z,32.22
2018-08-06T09:55:37.464Z,32.33
2018-08-06T09:56:37.456Z,32.26
2018-08-06T09:57:37.447Z,31.25
2018-08-06T09:58:37.439Z,30.88
2018-08-06T09:59:37.430Z,31.19
2018-08-06T10:00:37.422Z,31.31
2018-08-06T10:01:37.414Z,30.88
2018-08-06T10:02:37.405Z,30.95
2018-08-06T10:03:37.396Z,30.86
2018-08-06T10:04:37.386Z,30.88
2018-08-06T10:05:37.505Z,31.26
2018-08-06T10:06:37.497Z,30.89
2018-08-06T10:07:37.362Z,30.69
2018-08-06T10:08:37.352Z,31.35
2018-08-06T10:09:37.343Z,31.92
2018-08-06T10:10:37.334Z,31.69
2018-08-06T10:11:37.325Z,31.99
2018-08-06T10:12:37.317Z,31.36
2018-08-06T10:13:37.306Z,32.11
2018-08-06T10:14:37.304Z,31.89
2018-08-06T10:15:37.290Z,31.99
2018-08-06T10:16:37.281Z,32.07
2018-08-06T10:17:37.273Z,32.04
2018-08-06T10:18:37.265Z,31.47
2018-08-06T10:19:37.350Z,32.21
2018-08-06T10:20:37.247Z,32.26
2018-08-06T10:21:37.236Z,32.51
2018-08-06T10:22:37.227Z,32.22
2018-08-06T10:23:37.221Z,32.32
2018-08-06T10:24:37.275Z,32.22
2018-08-06T10:25:37.203Z,32.94
2018-08-06T10:26:37.194Z,32.75
2018-08-06T10:27:37.186Z,32.50
2018-08-06T10:28:37.178Z,32.77
2018-08-06T10:29:37.168Z,32.57
2018-08-06T10:30:37.225Z,31.58
2018-08-06T10:31:37.152Z,30.72
2018-08-06T10:32:37.144Z,30.23
2018-08-06T10:33:37.135Z,30.51
2018-08-06T10:34:37.127Z,30.94
2018-08-06T10:35:37.118Z,31.23
2018-08-06T10:36:37.108Z,31.66
2018-08-06T10:37:37.098Z,32.21
2018-08-06T10:38:37.091Z,32.43
2018-08-06T10:39:37.081Z,32.79
2018-08-06T10:40:37.073Z,32.78
2018-08-06T10:41:37.064Z,32.99
2018-08-06T10:42:37.054Z,33.57
2018-08-06T10:43:37.046Z,33.82
2018-08-06T10:44:37.037Z,34.05
2018-08-06T10:45:37.030Z,33.94
2018-08-06T10:46:37.021Z,33.59
2018-08-06T10:47:37.011Z,33.11
2018-08-06T10:48:37.045Z,32.29
2018-08-06T10:49:36.994Z,32.75
2018-08-06T10:50:36.987Z,33.34
2018-08-06T10:51:36.977Z,33.56
2018-08-06T10:52:36.970Z,33.11
2018-08-06T10:53:36.964Z,33.41
2018-08-06T10:54:36.952Z,33.84
2018-08-06T10:55:36.944Z,33.15
2018-08-06T10:56:36.939Z,33.14
2018-08-06T10:57:37.000Z,32.93
2018-08-06T10:58:36.919Z,32.78
2018-08-06T10:59:36.973Z,32.55
2018-08-06T11:00:36.902Z,32.25
2018-08-06T11:01:36.892Z,32.63
2018-08-06T11:02:36.883Z,32.35
2018-08-06T11:03:36.876Z,32.25
2018-08-06T11:04:36.868Z,32.57
2018-08-06T11:05:36.858Z,32.72
2018-08-06T11:06:36.911Z,32.78
2018-08-06T11:07:36.841Z,32.62
2018-08-06T11:08:36.832Z,32.78
2018-08-06T11:09:36.824Z,33.12
2018-08-06T11:10:36.819Z,33.57
2018-08-06T11:11:36.804Z,33.37
2018-08-06T11:12:36.795Z,33.81
2018-08-06T11:13:36.786Z,33.54
2018-08-06T11:14:36.783Z,32.57
2018-08-06T11:15:36.768Z,32.33
2018-08-06T11:16:36.763Z,32.75
2018-08-06T11:17:36.750Z,33.37
2018-08-06T11:18:36.741Z,34.03
2018-08-06T11:19:36.732Z,34.50
2018-08-06T11:20:36.789Z,34.53
2018-08-06T11:21:36.714Z,34.75
2018-08-06T11:22:36.707Z,33.42
2018-08-06T11:23:36.699Z,33.78
2018-08-06T11:24:36.690Z,34.15
2018-08-06T11:25:36.679Z,34.59
2018-08-06T11:26:36.670Z,34.59
2018-08-06T11:27:36.669Z,33.93
2018-08-06T11:28:36.720Z,33.88
2018-08-06T11:29:36.644Z,34.25
2018-08-06T11:30:36.638Z,33.60
2018-08-06T11:31:36.628Z,33.32
2018-08-06T11:32:36.619Z,33.11
2018-08-06T11:33:36.610Z,32.56
2018-08-06T11:34:36.603Z,32.66
2018-08-06T11:35:36.598Z,32.51
2018-08-06T11:36:36.615Z,32.94
2018-08-06T11:37:36.576Z,33.81
2018-08-06T11:38:36.567Z,33.75
2018-08-06T11:39:36.561Z,33.68
2018-08-06T11:40:36.550Z,33.94
2018-08-06T11:41:36.540Z,34.35
2018-08-06T11:42:36.530Z,34.65
2018-08-06T11:43:36.521Z,34.78
2018-08-06T11:44:36.514Z,34.44
2018-08-06T11:45:36.504Z,33.81
2018-08-06T11:46:36.495Z,34.13
2018-08-06T11:47:36.487Z,34.46
2018-08-06T11:48:36.478Z,34.59
2018-08-06T11:49:36.469Z,34.82
2018-08-06T11:50:36.465Z,34.78
2018-08-06T11:51:36.452Z,34.69
2018-08-06T11:52:36.443Z,34.81
2018-08-06T11:53:36.436Z,34.37
2018-08-06T11:54:36.428Z,34.08
2018-08-06T11:55:36.417Z,33.75
2018-08-06T11:56:36.478Z,33.65
2018-08-06T11:57:36.402Z,34.02
2018-08-06T11:58:36.391Z,33.95
2018-08-06T11:59:36.395Z,34.03
2018-08-06T12:00:36.374Z,34.15
2018-08-06T12:01:36.363Z,34.37
2018-08-06T12:02:36.354Z,34.85
2018-08-06T12:03:36.351Z,34.52
2018-08-06T12:04:36.338Z,34.40
2018-08-06T12:05:36.327Z,34.37
2018-08-06T12:06:36.317Z,34.24
2018-08-06T12:07:36.310Z,34.19
2018-08-06T12:08:36.329Z,34.35
2018-08-06T12:09:36.297Z,33.90
2018-08-06T12:10:36.283Z,34.17
2018-08-06T12:11:36.272Z,34.35
2018-08-06T12:12:36.264Z,34.47
2018-08-06T12:13:36.297Z,34.53
2018-08-06T12:14:36.247Z,34.66
2018-08-06T12:15:36.237Z,34.91
2018-08-06T12:16:36.228Z,34.88
2018-08-06T12:17:36.219Z,35.47
2018-08-06T12:18:36.209Z,35.92
2018-08-06T12:19:36.201Z,36.43
2018-08-06T12:20:36.193Z,36.05
2018-08-06T12:21:36.186Z,35.02
2018-08-06T12:22:36.174Z,35.06
2018-08-06T12:23:36.166Z,34.54
2018-08-06T12:24:36.178Z,34.61
2018-08-06T12:25:36.149Z,34.37
2018-08-06T12:26:36.142Z,34.89
2018-08-06T12:27:36.131Z,35.14
2018-08-06T12:28:36.122Z,35.31
2018-08-06T12:29:36.114Z,35.58
2018-08-06T12:30:36.103Z,35.92
2018-08-06T12:31:36.156Z,35.99
2018-08-06T12:32:36.086Z,35.77
2018-08-06T12:33:36.078Z,35.66
2018-08-06T12:34:36.069Z,35.92
2018-08-06T12:35:36.063Z,35.90
2018-08-06T12:36:36.051Z,35.82
2018-08-06T12:37:36.041Z,36.15
2018-08-06T12:38:36.034Z,35.96
2018-08-06T12:39:36.026Z,36.09
2018-08-06T12:40:36.018Z,36.15
2018-08-06T12:41:36.008Z,36.43
2018-08-06T12:42:36.000Z,35.53
2018-08-06T12:43:35.991Z,34.52
2018-08-06T12:44:35.982Z,35.04
2018-08-06T12:45:35.974Z,35.21
2018-08-06T12:46:35.966Z,35.19
2018-08-06T12:47:35.958Z,35.18
2018-08-06T12:48:35.949Z,35.28
2018-08-06T12:49:35.940Z,35.40
2018-08-06T12:50:35.931Z,35.53
2018-08-06T12:51:35.939Z,35.45
2018-08-06T12:52:35.916Z,35.48